createdAt,value
2023-05-21T00:01:19.337Z,72.60
2023-05-21T00:04:09.566Z,72.60
2023-05-21T00:06:56.620Z,72.90
2023-05-21T00:09:43.766Z,72.80
2023-05-21T00:12:32.215Z,72.80
2023-05-21T00:15:19.319Z,72.90
2023-05-21T00:18:06.573Z,72.90
2023-05-21T00:20:54.397Z,73.00
2023-05-21T00:23:42.725Z,73.10
2023-05-21T00:26:29.810Z,73.30
2023-05-21T00:29:17.723Z,73.30
2023-05-21T00:32:05.820Z,73.50
2023-05-21T00:34:54.605Z,73.50
2023-05-21T00:37:42.526Z,73.70
2023-05-21T00:40:31.044Z,73.80
2023-05-21T00:43:18.128Z,73.90
2023-05-21T00:46:05.493Z,74.00
2023-05-21T00:48:52.757Z,74.10
2023-05-21T00:51:40.187Z,74.00
2023-05-21T00:54:28.021Z,73.90
2023-05-21T00:57:16.390Z,73.90
2023-05-21T01:00:07.330Z,74.00
2023-05-21T01:02:54.828Z,74.20
2023-05-21T01:05:45.121Z,74.30
2023-05-21T01:08:34.851Z,73.90
2023-05-21T01:11:30.402Z,74.00
2023-05-21T01:14:19.783Z,74.40
2023-05-21T01:17:10.380Z,74.70
2023-05-21T01:19:58.681Z,74.80
2023-05-21T01:22:56.043Z,75.00
2023-05-21T01:25:45.060Z,74.90
2023-05-21T01:28:34.343Z,75.00
2023-05-21T01:31:27.793Z,75.30
2023-05-21T01:34:20.636Z,75.40
2023-05-21T01:37:22.679Z,75.40
2023-05-21T01:40:34.288Z,75.30
2023-05-21T01:43:23.339Z,75.10
2023-05-21T01:46:13.352Z,75.00
2023-05-21T01:49:01.059Z,74.90
2023-05-21T01:51:49.121Z,74.70
2023-05-21T01:54:36.221Z,74.90
2023-05-21T01:57:23.418Z,75.00
2023-05-21T02:00:11.761Z,75.00
2023-05-21T02:03:07.985Z,75.10
2023-05-21T02:05:55.728Z,75.10
2023-05-21T02:08:42.873Z,75.00
2023-05-21T02:11:30.338Z,75.00
2023-05-21T02:14:17.735Z,75.10
2023-05-21T02:17:05.241Z,75.30
2023-05-21T02:19:52.483Z,75.50
2023-05-21T02:22:41.340Z,75.50
2023-05-21T02:25:28.488Z,75.90
2023-05-21T02:28:15.886Z,76.00
2023-05-21T02:31:03.082Z,76.10
2023-05-21T02:33:50.230Z,76.50
2023-05-21T02:36:37.306Z,76.70
2023-05-21T02:39:26.159Z,76.70
2023-05-21T02:42:13.352Z,76.70
2023-05-21T02:45:00.479Z,77.10
2023-05-21T02:47:47.597Z,77.20
2023-05-21T02:50:37.677Z,77.20
2023-05-21T02:53:25.275Z,77.10
2023-05-21T02:56:12.538Z,77.20
2023-05-21T02:58:59.570Z,77.50
2023-05-21T03:01:47.978Z,77.60
2023-05-21T03:04:38.822Z,77.50
2023-05-21T03:07:25.972Z,77.70
2023-05-21T03:10:13.621Z,77.70
2023-05-21T03:13:05.357Z,77.90
2023-05-21T03:15:56.370Z,78.10
2023-05-21T03:18:44.126Z,78.30
2023-05-21T03:21:32.297Z,78.50
2023-05-21T03:24:19.401Z,78.70
2023-05-21T03:27:07.070Z,78.50
2023-05-21T03:29:55.772Z,78.80
2023-05-21T03:32:45.139Z,78.80
2023-05-21T03:35:32.283Z,78.60
2023-05-21T03:38:19.641Z,78.60
2023-05-21T03:41:08.288Z,78.80
2023-05-21T03:43:55.789Z,78.70
2023-05-21T03:46:46.272Z,78.90
2023-05-21T03:49:48.327Z,79.10
2023-05-21T03:52:35.555Z,79.20
2023-05-21T03:55:23.012Z,79.20
2023-05-21T03:58:10.923Z,79.30
2023-05-21T04:00:58.321Z,79.30
2023-05-21T04:03:45.803Z,79.30
2023-05-21T04:06:34.255Z,78.90
2023-05-21T04:09:21.714Z,79.00
2023-05-21T04:12:08.906Z,79.10
2023-05-21T04:14:57.275Z,78.80
2023-05-21T04:17:45.390Z,78.70
2023-05-21T04:20:33.306Z,78.50
2023-05-21T04:23:23.340Z,78.60
2023-05-21T04:26:12.743Z,78.50
2023-05-21T04:29:03.681Z,78.40
2023-05-21T04:31:50.961Z,78.70
2023-05-21T04:34:39.591Z,78.40
2023-05-21T04:37:31.375Z,78.20
2023-05-21T04:40:24.197Z,78.10
2023-05-21T04:43:11.432Z,78.20
2023-05-21T04:45:58.951Z,77.90
2023-05-21T04:48:46.757Z,78.10
2023-05-21T04:51:33.860Z,77.80
2023-05-21T04:54:22.566Z,77.80
2023-05-21T04:57:10.812Z,77.60
2023-05-21T04:59:58.304Z,77.40
2023-05-21T05:02:46.323Z,77.50
2023-05-21T05:05:33.823Z,77.20
2023-05-21T05:08:21.040Z,77.10
2023-05-21T05:11:08.644Z,77.20
2023-05-21T05:13:56.042Z,77.10
2023-05-21T05:16:43.288Z,77.20
2023-05-21T05:19:31.816Z,77.00
2023-05-21T05:22:19.188Z,76.90
2023-05-21T05:25:07.658Z,77.10
2023-05-21T05:27:55.372Z,76.70
2023-05-21T05:30:42.935Z,76.60
2023-05-21T05:33:41.396Z,76.60
2023-05-21T05:36:28.619Z,76.20
2023-05-21T05:39:15.970Z,76.40
2023-05-21T05:42:03.578Z,76.10
2023-05-21T05:44:51.437Z,75.50
2023-05-21T05:47:38.559Z,75.50
2023-05-21T05:50:26.399Z,76.00
2023-05-21T05:53:13.550Z,75.80
2023-05-21T05:56:01.111Z,75.80
2023-05-21T05:58:50.546Z,76.20
2023-05-21T06:01:38.425Z,75.70
2023-05-21T06:04:29.816Z,75.30
2023-05-21T06:07:16.966Z,75.30
2023-05-21T06:10:05.754Z,74.90
2023-05-21T06:12:52.829Z,75.30
2023-05-21T06:15:43.109Z,75.60
2023-05-21T06:18:30.749Z,74.90
2023-05-21T06:21:17.984Z,74.80
2023-05-21T06:24:06.239Z,75.10
2023-05-21T06:26:53.422Z,74.60
2023-05-21T06:29:41.270Z,74.30
2023-05-21T06:32:28.591Z,74.20
2023-05-21T06:35:16.357Z,74.30
2023-05-21T06:38:03.618Z,73.40
2023-05-21T06:40:51.004Z,73.40
2023-05-21T06:43:53.667Z,73.60
2023-05-21T06:47:00.799Z,73.90
2023-05-21T06:49:47.984Z,73.30
2023-05-21T06:52:35.307Z,73.20
2023-05-21T06:55:23.673Z,73.30
2023-05-21T06:58:31.493Z,73.40
2023-05-21T07:01:19.407Z,73.40
2023-05-21T07:04:06.513Z,72.90
2023-05-21T07:06:54.510Z,72.50
2023-05-21T07:09:43.397Z,71.60
2023-05-21T07:12:30.531Z,71.90
2023-05-21T07:15:17.735Z,71.90
2023-05-21T07:18:05.004Z,71.90
2023-05-21T07:20:52.291Z,71.90
2023-05-21T07:23:40.997Z,71.50
2023-05-21T07:26:28.741Z,71.10
2023-05-21T07:29:15.952Z,70.50
2023-05-21T07:32:03.365Z,70.70
2023-05-21T07:34:51.583Z,71.10
2023-05-21T07:37:41.098Z,70.70
2023-05-21T07:40:28.321Z,70.50
2023-05-21T07:43:15.944Z,70.70
2023-05-21T07:46:03.129Z,71.10
2023-05-21T07:48:50.703Z,70.50
2023-05-21T07:51:37.794Z,70.20
2023-05-21T07:54:24.906Z,70.00
2023-05-21T07:57:12.520Z,69.80
2023-05-21T08:00:14.120Z,69.30
2023-05-21T08:03:08.584Z,68.90
2023-05-21T08:05:56.588Z,69.00
2023-05-21T08:08:43.845Z,68.80
2023-05-21T08:11:31.028Z,68.80
2023-05-21T08:14:18.199Z,68.20
2023-05-21T08:17:05.612Z,68.30
2023-05-21T08:19:52.750Z,68.10
2023-05-21T08:22:40.024Z,68.50
2023-05-21T08:25:27.629Z,68.80
2023-05-21T08:28:16.098Z,68.00
2023-05-21T08:31:03.248Z,67.90
2023-05-21T08:33:54.447Z,68.10
2023-05-21T08:36:50.196Z,67.20
2023-05-21T08:39:55.920Z,66.70
2023-05-21T08:42:45.845Z,67.40
2023-05-21T08:45:42.317Z,67.80
2023-05-21T08:48:31.217Z,68.80
2023-05-21T08:51:18.373Z,68.60
2023-05-21T08:54:09.321Z,68.50
2023-05-21T08:56:58.195Z,68.20
2023-05-21T08:59:45.728Z,67.60
2023-05-21T09:02:43.706Z,66.90
2023-05-21T09:05:35.272Z,66.70
2023-05-21T09:08:31.120Z,66.30
2023-05-21T09:11:22.443Z,66.00
2023-05-21T09:14:15.707Z,66.30
2023-05-21T09:17:20.159Z,65.60
2023-05-21T09:20:17.387Z,66.00
2023-05-21T09:23:16.411Z,65.40
2023-05-21T09:26:12.700Z,64.50
2023-05-21T09:29:00.773Z,64.40
2023-05-21T09:31:48.230Z,64.30
2023-05-21T09:34:36.902Z,64.40
2023-05-21T09:37:27.678Z,63.70
2023-05-21T09:40:20.079Z,64.30
2023-05-21T09:43:07.137Z,64.70
2023-05-21T09:45:58.357Z,65.10
2023-05-21T09:48:49.768Z,65.10
2023-05-21T09:51:39.508Z,64.50
2023-05-21T09:54:33.270Z,64.40
2023-05-21T09:57:26.722Z,64.50
2023-05-21T10:00:24.654Z,63.60
2023-05-21T10:03:14.905Z,63.40
2023-05-21T10:06:02.789Z,62.30
2023-05-21T10:08:53.466Z,62.60
2023-05-21T10:11:44.101Z,62.30
2023-05-21T10:14:34.143Z,62.80
2023-05-21T10:17:22.003Z,63.00
2023-05-21T10:20:11.089Z,62.50
2023-05-21T10:22:59.280Z,62.40
2023-05-21T10:25:47.170Z,62.30
2023-05-21T10:28:34.851Z,62.00
2023-05-21T10:31:23.120Z,61.90
2023-05-21T10:34:12.084Z,62.00
2023-05-21T10:37:02.517Z,61.60
2023-05-21T10:39:50.596Z,61.60
2023-05-21T10:43:10.835Z,61.40
2023-05-21T10:45:57.887Z,61.20
2023-05-21T10:49:10.977Z,62.30
2023-05-21T10:52:28.132Z,62.30
2023-05-21T10:55:36.459Z,62.00
2023-05-21T10:59:04.049Z,62.40
2023-05-21T11:01:56.162Z,61.40
2023-05-21T11:04:48.991Z,61.90
2023-05-21T11:07:58.255Z,60.90
2023-05-21T11:10:55.769Z,60.20
2023-05-21T11:13:51.474Z,60.30
2023-05-21T11:16:45.711Z,60.50
2023-05-21T11:19:43.329Z,60.40
2023-05-21T11:22:31.568Z,60.30
2023-05-21T11:25:18.920Z,60.30
2023-05-21T11:28:09.288Z,60.10
2023-05-21T11:31:25.796Z,60.10
2023-05-21T11:34:21.785Z,60.00
2023-05-21T11:37:18.188Z,59.50
2023-05-21T11:40:26.207Z,59.80
2023-05-21T11:43:13.416Z,59.60
2023-05-21T11:46:00.918Z,60.10
2023-05-21T11:48:49.402Z,60.70
2023-05-21T11:51:36.793Z,60.00
2023-05-21T11:54:25.826Z,60.50
2023-05-21T11:57:18.651Z,59.90
2023-05-21T12:00:14.000Z,59.70
2023-05-21T12:03:01.911Z,59.60
2023-05-21T12:05:49.990Z,59.90
2023-05-21T12:08:38.362Z,59.20
2023-05-21T12:11:27.376Z,59.00
2023-05-21T12:14:14.854Z,59.00
2023-05-21T12:17:06.859Z,59.00
2023-05-21T12:19:56.764Z,59.20
2023-05-21T12:22:44.890Z,58.80
2023-05-21T12:25:32.254Z,58.40
2023-05-21T12:28:21.882Z,58.50
2023-05-21T12:31:15.174Z,58.40
2023-05-21T12:34:02.286Z,58.90
2023-05-21T12:36:50.941Z,58.70
2023-05-21T12:39:39.354Z,58.30
2023-05-21T12:42:27.396Z,58.30
2023-05-21T12:45:14.955Z,58.20
2023-05-21T12:48:03.103Z,58.10
2023-05-21T12:50:52.438Z,58.00
2023-05-21T12:53:41.898Z,57.10
2023-05-21T12:56:44.342Z,56.60
2023-05-21T12:59:44.079Z,56.50
2023-05-21T13:02:41.990Z,56.70
2023-05-21T13:05:30.341Z,56.60
2023-05-21T13:08:17.436Z,57.10
2023-05-21T13:11:04.815Z,57.30
2023-05-21T13:13:51.905Z,57.90
2023-05-21T13:16:38.992Z,58.00
2023-05-21T13:19:26.426Z,58.30
2023-05-21T13:22:13.721Z,57.70
2023-05-21T13:25:01.396Z,58.00
2023-05-21T13:27:50.046Z,57.60
2023-05-21T13:30:37.498Z,57.20
2023-05-21T13:33:24.900Z,57.10
2023-05-21T13:36:12.231Z,56.60
2023-05-21T13:38:59.348Z,56.90
2023-05-21T13:41:47.660Z,57.20
2023-05-21T13:44:36.462Z,57.10
2023-05-21T13:47:23.884Z,56.90
2023-05-21T13:50:11.668Z,56.10
2023-05-21T13:52:58.733Z,55.50
2023-05-21T13:55:45.887Z,55.00
2023-05-21T13:58:34.610Z,55.00
2023-05-21T14:01:21.730Z,55.00
2023-05-21T14:04:08.892Z,54.40
2023-05-21T14:06:56.730Z,55.00
2023-05-21T14:09:43.850Z,54.30
2023-05-21T14:12:31.226Z,54.30
2023-05-21T14:15:18.482Z,54.10
2023-05-21T14:18:08.045Z,54.00
2023-05-21T14:25:06.853Z,53.80
2023-05-21T14:27:53.342Z,53.40
2023-05-21T14:30:38.573Z,53.40
2023-05-21T14:33:23.994Z,53.30
2023-05-21T14:36:09.233Z,53.40
2023-05-21T14:38:54.787Z,53.70
2023-05-21T14:41:40.448Z,53.90
2023-05-21T14:44:26.564Z,53.70
2023-05-21T14:47:11.965Z,53.70
2023-05-21T14:49:57.438Z,53.40
2023-05-21T14:52:43.169Z,53.30
2023-05-21T14:55:29.646Z,52.20
2023-05-21T14:58:14.907Z,52.10
2023-05-21T15:01:00.669Z,52.20
2023-05-21T15:03:46.197Z,52.20
2023-05-21T15:06:32.754Z,52.20
2023-05-21T15:09:18.547Z,52.00
2023-05-21T15:12:04.082Z,51.70
2023-05-21T15:14:49.999Z,50.80
2023-05-21T15:17:36.039Z,49.40
2023-05-21T15:20:21.954Z,48.20
2023-05-21T15:23:16.889Z,47.90
2023-05-21T15:26:03.386Z,46.60
2023-05-21T15:28:48.909Z,45.50
2023-05-21T15:31:34.503Z,45.50
2023-05-21T15:34:20.212Z,43.90
2023-05-21T15:37:05.734Z,43.30
2023-05-21T15:39:51.086Z,43.00
2023-05-21T15:42:36.543Z,42.30
2023-05-21T15:45:22.082Z,42.20
2023-05-21T15:48:07.808Z,42.10
2023-05-21T15:50:53.057Z,41.10
2023-05-21T15:53:38.656Z,41.00
2023-05-21T15:56:24.280Z,40.50
2023-05-21T15:59:09.720Z,40.00
2023-05-21T16:01:56.236Z,39.20
2023-05-21T16:04:42.047Z,39.00
2023-05-21T16:07:27.489Z,39.00
2023-05-21T16:10:13.045Z,39.70
2023-05-21T16:12:58.625Z,40.60
2023-05-21T16:15:44.405Z,40.40
2023-05-21T16:18:29.660Z,40.00
2023-05-21T16:21:15.785Z,40.30
2023-05-21T16:24:01.492Z,40.20
2023-05-21T16:26:47.424Z,40.80
2023-05-21T16:29:33.144Z,41.30
2023-05-21T16:32:18.909Z,42.20
2023-05-21T16:35:04.700Z,42.80
2023-05-21T16:37:50.275Z,43.70
2023-05-21T16:40:35.657Z,43.90
2023-05-21T16:43:21.447Z,44.40
2023-05-21T16:46:06.718Z,44.80
2023-05-21T16:48:52.009Z,45.00
2023-05-21T16:51:37.595Z,45.20
2023-05-21T16:54:22.967Z,45.40
2023-05-21T16:57:08.254Z,45.60
2023-05-21T16:59:53.557Z,45.50
2023-05-21T17:02:39.149Z,45.70
2023-05-21T17:05:26.311Z,45.60
2023-05-21T17:08:12.146Z,46.20
2023-05-21T17:10:58.286Z,46.20
2023-05-21T17:13:47.930Z,46.00
2023-05-21T17:16:33.733Z,46.20
2023-05-21T17:19:19.388Z,46.30
2023-05-21T17:22:04.888Z,47.00
2023-05-21T17:24:50.196Z,46.90
2023-05-21T17:27:35.768Z,47.00
2023-05-21T17:30:21.179Z,47.10
2023-05-21T17:33:07.752Z,47.10
2023-05-21T17:35:53.747Z,47.60
2023-05-21T17:38:39.382Z,47.60
2023-05-21T17:41:26.076Z,47.70
2023-05-21T17:44:13.572Z,48.10
2023-05-21T17:46:58.819Z,48.20
2023-05-21T17:49:44.229Z,48.00
2023-05-21T17:52:29.705Z,48.40
2023-05-21T17:55:15.216Z,48.90
2023-05-21T17:58:00.723Z,48.90
2023-05-21T18:00:46.120Z,49.50
2023-05-21T18:03:31.958Z,49.50
2023-05-21T18:06:17.598Z,49.50
2023-05-21T18:09:03.303Z,49.60
2023-05-21T18:11:49.150Z,50.00
2023-05-21T18:14:34.573Z,50.70
2023-05-21T18:17:20.088Z,50.90
2023-05-21T18:20:06.064Z,51.10
2023-05-21T18:22:51.754Z,51.50
2023-05-21T18:25:37.403Z,51.50
2023-05-21T18:28:22.806Z,51.50
2023-05-21T18:31:08.464Z,51.30
2023-05-21T18:33:53.878Z,51.10
2023-05-21T18:36:40.063Z,51.70
2023-05-21T18:39:26.863Z,51.90
2023-05-21T18:42:13.942Z,52.40
2023-05-21T18:45:06.716Z,52.70
2023-05-21T18:47:52.141Z,53.20
2023-05-21T18:50:38.472Z,53.80
2023-05-21T18:53:23.980Z,54.00
2023-05-21T18:56:10.203Z,54.10
2023-05-21T18:58:55.872Z,54.00
2023-05-21T19:01:41.353Z,54.30
2023-05-21T19:04:27.337Z,55.00
2023-05-21T19:07:13.009Z,55.20
2023-05-21T19:10:00.185Z,55.40
2023-05-21T19:12:46.338Z,55.50
2023-05-21T19:15:32.118Z,56.00
2023-05-21T19:18:17.721Z,56.30
2023-05-21T19:21:03.877Z,55.90
2023-05-21T19:23:53.168Z,56.10
2023-05-21T19:26:39.500Z,56.90
2023-05-21T19:29:25.619Z,57.40
2023-05-21T19:32:12.448Z,57.80
2023-05-21T19:34:58.309Z,57.90
2023-05-21T19:37:44.108Z,57.70
2023-05-21T19:40:30.386Z,57.80
2023-05-21T19:43:16.227Z,58.10
2023-05-21T19:46:01.622Z,58.20
2023-05-21T19:48:46.939Z,57.90
2023-05-21T19:51:32.403Z,58.20
2023-05-21T19:54:18.521Z,58.50
2023-05-21T19:57:04.678Z,58.60
2023-05-21T19:59:50.038Z,58.90
2023-05-21T20:02:35.461Z,59.10
2023-05-21T20:05:21.053Z,59.20
2023-05-21T20:08:06.169Z,59.40
2023-05-21T20:10:52.252Z,59.60
2023-05-21T20:13:37.633Z,59.70
2023-05-21T20:16:23.293Z,59.70
2023-05-21T20:19:10.573Z,60.00
2023-05-21T20:21:56.685Z,60.10
2023-05-21T20:24:42.995Z,60.00
2023-05-21T20:27:28.617Z,60.30
2023-05-21T20:30:14.126Z,60.30
2023-05-21T20:33:01.834Z,60.30
2023-05-21T20:35:47.549Z,60.30
2023-05-21T20:38:33.195Z,60.70
2023-05-21T20:41:20.057Z,60.70
2023-05-21T20:44:06.510Z,60.60
2023-05-21T20:46:52.559Z,60.50
2023-05-21T20:49:38.230Z,60.90
2023-05-21T20:52:24.855Z,61.10
2023-05-21T20:55:12.626Z,60.90
2023-05-21T20:57:58.034Z,61.00
2023-05-21T21:00:44.831Z,61.60
2023-05-21T21:03:34.193Z,61.80
2023-05-21T21:06:20.085Z,62.00
2023-05-21T21:09:05.546Z,62.50
2023-05-21T21:11:51.381Z,62.40
2023-05-21T21:14:36.813Z,62.50
2023-05-21T21:17:22.362Z,62.30
2023-05-21T21:20:09.858Z,62.40
2023-05-21T21:22:55.744Z,62.40
2023-05-21T21:25:41.192Z,62.50
2023-05-21T21:28:26.734Z,62.40
2023-05-21T21:31:12.085Z,62.50
2023-05-21T21:33:58.008Z,62.90
2023-05-21T21:36:43.736Z,62.90
2023-05-21T21:39:29.129Z,62.60
2023-05-21T21:42:14.757Z,62.40
2023-05-21T21:45:00.193Z,62.30
2023-05-21T21:47:45.569Z,62.40
2023-05-21T21:50:31.098Z,62.40
2023-05-21T21:53:16.800Z,62.50
2023-05-21T21:56:02.323Z,62.20
2023-05-21T21:58:47.787Z,62.10
2023-05-21T22:01:33.625Z,62.70
2023-05-21T22:04:19.043Z,62.40
2023-05-21T22:07:04.630Z,62.70
2023-05-21T22:09:49.971Z,62.50
2023-05-21T22:12:35.284Z,62.20
2023-05-21T22:15:27.473Z,62.40
2023-05-21T22:18:13.112Z,62.50
2023-05-21T22:20:59.705Z,62.50
2023-05-21T22:23:45.460Z,62.50
2023-05-21T22:26:31.397Z,62.60
2023-05-21T22:29:16.734Z,62.50
2023-05-21T22:32:02.145Z,62.50
2023-05-21T22:34:47.504Z,62.70
2023-05-21T22:37:32.969Z,62.60
2023-05-21T22:40:18.658Z,62.70
2023-05-21T22:43:04.620Z,62.60
2023-05-21T22:45:50.100Z,62.50
2023-05-21T22:48:37.292Z,62.30
2023-05-21T22:51:22.747Z,62.50
2023-05-21T22:54:08.299Z,62.70
2023-05-21T22:56:53.625Z,63.00
2023-05-21T22:59:39.129Z,63.00
2023-05-21T23:02:24.819Z,63.60
2023-05-21T23:05:10.303Z,63.30
2023-05-21T23:07:55.751Z,63.30
2023-05-21T23:10:41.454Z,63.50
2023-05-21T23:13:27.025Z,63.40
2023-05-21T23:16:12.769Z,63.50
2023-05-21T23:18:58.356Z,63.70
2023-05-21T23:21:43.997Z,63.90
2023-05-21T23:24:29.465Z,64.00
2023-05-21T23:27:15.631Z,64.10
2023-05-21T23:30:01.157Z,64.20
2023-05-21T23:32:46.702Z,64.40
2023-05-21T23:35:32.255Z,64.30
2023-05-21T23:38:17.758Z,64.20
2023-05-21T23:41:02.864Z,64.50
2023-05-21T23:43:48.485Z,64.40
2023-05-21T23:46:34.094Z,64.40
2023-05-21T23:49:19.618Z,64.70
2023-05-21T23:52:05.779Z,64.70
2023-05-21T23:54:51.801Z,64.40
2023-05-21T23:57:37.534Z,64.40
